CheckWX is a tool to help pilots better visualize weather data.  It is not intended as a substitute for an official pre-flight weather briefing.

04:24:17 UTC

EGVO METAR
RAF Odiham Airport
Odiham, United Kingdom
Current

34 mins ago

EGVO 270350Z 04010KT 9999 BKN011 13/11 Q1028 RMK GRN
Observed
Jun-27 @ 03:50 UTC
Wind
  • 040° at 10 KTS
Visibility
10,000+ meters
Flight Rules
MVFR
Cloud Levels
  • Broken at 1,100' AGL
Temperature
13°C / 55°F
Dewpoint
11°C / 52°F
Humidity
88%
Altimeter
30.35" Hg
Pressure
1027.92 hPa
Previous

34 mins ago

EGVO 270350Z 04010KT 9999 BKN011 13/11 Q1028 NOSIG RMK GRN GRN
Observed
Jun-27 @ 03:50 UTC
Wind
  • 040° at 10 KTS
Visibility
10,000+ meters
Flight Rules
MVFR
Cloud Levels
  • Broken at 1,100' AGL
Temperature
13°C / 55°F
Dewpoint
11°C / 52°F
Humidity
88%
Altimeter
30.35" Hg
Pressure
1027.92 hPa
Previous

2 hours ago

EGVO 270250Z AUTO 04011KT 9999 OVC011/// 13/11 Q1028
Observed
Jun-27 @ 02:50 UTC
Wind
  • 040° at 11 KTS
Visibility
10,000+ meters
Flight Rules
MVFR
Cloud Levels
  • Overcast at 1,100' AGL
Temperature
13°C / 55°F
Dewpoint
11°C / 52°F
Humidity
88%
Altimeter
30.35" Hg
Pressure
1027.92 hPa